createdAt,value
2019-03-09T00:00:24.371Z,99874
2019-03-09T00:05:24.383Z,99858
2019-03-09T00:10:24.333Z,99844
2019-03-09T00:15:24.375Z,99853
2019-03-09T00:20:24.373Z,99848
2019-03-09T00:25:24.342Z,99854
2019-03-09T00:30:24.383Z,99862
2019-03-09T00:35:24.359Z,99853
2019-03-09T00:40:24.388Z,99852
2019-03-09T00:45:24.382Z,99849
2019-03-09T00:50:24.375Z,99840
2019-03-09T00:55:24.361Z,99846
2019-03-09T01:00:24.377Z,99851
2019-03-09T01:05:24.379Z,99838
2019-03-09T01:10:24.393Z,99847
2019-03-09T01:15:24.381Z,99837
2019-03-09T01:20:24.380Z,99826
2019-03-09T01:25:24.417Z,99800
2019-03-09T01:30:24.386Z,99796
2019-03-09T01:35:24.377Z,99766
2019-03-09T01:40:24.372Z,99752
2019-03-09T01:45:24.345Z,99726
2019-03-09T01:50:24.380Z,99715
2019-03-09T01:55:24.378Z,99722
2019-03-09T02:00:24.337Z,99705
2019-03-09T02:05:24.387Z,99693
2019-03-09T02:10:24.384Z,99690
2019-03-09T02:15:24.385Z,99677
2019-03-09T02:20:24.367Z,99670
2019-03-09T02:25:24.385Z,99667
2019-03-09T02:30:24.388Z,99653
2019-03-09T02:35:24.393Z,99645
2019-03-09T02:40:24.394Z,99629
2019-03-09T02:45:24.402Z,99606
2019-03-09T02:50:24.390Z,99575
2019-03-09T02:55:24.386Z,99563
2019-03-09T03:00:24.390Z,99562
2019-03-09T03:05:24.372Z,99550
2019-03-09T03:10:24.390Z,99534
2019-03-09T03:15:24.435Z,99531
2019-03-09T03:20:24.374Z,99520
2019-03-09T03:25:24.385Z,99508
2019-03-09T03:30:24.402Z,99499
2019-03-09T03:35:24.370Z,99499
2019-03-09T03:40:24.443Z,99490
2019-03-09T03:45:24.385Z,99501
2019-03-09T03:50:24.387Z,99484
2019-03-09T03:55:24.399Z,99466
2019-03-09T04:00:24.387Z,99463
2019-03-09T04:05:24.406Z,99434
2019-03-09T04:10:24.404Z,99430
2019-03-09T04:15:24.362Z,99426
2019-03-09T04:20:24.386Z,99412
2019-03-09T04:25:24.438Z,99391
2019-03-09T04:30:24.361Z,99381
2019-03-09T04:35:24.400Z,99382
2019-03-09T04:40:24.396Z,99374
2019-03-09T04:45:24.424Z,99361
2019-03-09T04:50:24.392Z,99365
2019-03-09T04:55:24.397Z,99360
2019-03-09T05:00:24.399Z,99349
2019-03-09T05:05:24.355Z,99327
2019-03-09T05:10:24.369Z,99334
2019-03-09T05:15:24.401Z,99317
2019-03-09T05:20:24.390Z,99309
2019-03-09T05:25:24.388Z,99296
2019-03-09T05:30:24.392Z,99288
2019-03-09T05:35:24.409Z,99298
2019-03-09T05:40:24.390Z,99290
2019-03-09T05:45:24.413Z,99277
2019-03-09T05:50:24.390Z,99269
2019-03-09T05:55:24.366Z,99283
2019-03-09T06:00:24.395Z,99279
2019-03-09T06:05:24.405Z,99273
2019-03-09T06:10:24.401Z,99265
2019-03-09T06:15:24.400Z,99280
2019-03-09T06:20:24.409Z,99288
2019-03-09T06:25:24.405Z,99270
2019-03-09T06:30:24.411Z,99268
2019-03-09T06:35:24.410Z,99271
2019-03-09T06:40:24.396Z,99279
2019-03-09T06:45:24.407Z,99284
2019-03-09T06:50:24.369Z,99286
2019-03-09T06:55:24.419Z,99273
2019-03-09T07:00:24.398Z,99288
2019-03-09T07:05:24.410Z,99274
2019-03-09T07:10:24.414Z,99297
2019-03-09T07:15:24.372Z,99290
2019-03-09T07:20:24.403Z,99295
2019-03-09T07:25:24.437Z,99277
2019-03-09T07:30:24.398Z,99298
2019-03-09T07:35:24.418Z,99281
2019-03-09T07:40:24.376Z,99281
2019-03-09T07:45:24.401Z,99278
2019-03-09T07:50:24.425Z,99281
2019-03-09T07:55:24.411Z,99294
2019-03-09T08:00:24.407Z,99263
2019-03-09T08:05:24.437Z,99264
2019-03-09T08:10:24.377Z,99267
2019-03-09T08:15:24.405Z,99266
2019-03-09T08:20:24.456Z,99262
2019-03-09T08:25:24.415Z,99280
2019-03-09T08:30:24.408Z,99279
2019-03-09T08:35:24.456Z,99289
2019-03-09T08:40:24.420Z,99276
2019-03-09T08:45:24.451Z,99276
2019-03-09T08:50:24.419Z,99295
2019-03-09T08:55:24.416Z,99290
2019-03-09T09:00:24.436Z,99317
2019-03-09T09:05:24.421Z,99317
2019-03-09T09:10:24.428Z,99340
2019-03-09T09:15:24.404Z,99337
2019-03-09T09:20:24.408Z,99338
2019-03-09T09:25:24.424Z,99345
2019-03-09T09:30:24.405Z,99356
2019-03-09T09:35:24.433Z,99372
2019-03-09T09:40:24.462Z,99372
2019-03-09T09:45:24.413Z,99390
2019-03-09T09:50:24.415Z,99374
2019-03-09T09:55:24.426Z,99376
2019-03-09T10:00:24.476Z,99371
2019-03-09T10:05:24.424Z,99333
2019-03-09T10:10:24.420Z,99340
2019-03-09T10:15:24.433Z,99344
2019-03-09T10:20:24.429Z,99340
2019-03-09T10:25:24.424Z,99349
2019-03-09T10:30:24.425Z,99357
2019-03-09T10:35:24.423Z,99362
2019-03-09T10:40:24.452Z,99346
2019-03-09T10:45:24.378Z,99352
2019-03-09T10:50:25.953Z,99363
2019-03-09T10:55:24.440Z,99360
2019-03-09T11:00:24.416Z,99341
2019-03-09T11:05:24.424Z,99352
2019-03-09T11:10:24.434Z,99364
2019-03-09T11:15:24.384Z,99349
2019-03-09T11:20:24.437Z,99379
2019-03-09T11:25:24.444Z,99355
2019-03-09T11:30:24.431Z,99363
2019-03-09T11:35:24.433Z,99358
2019-03-09T11:40:24.468Z,99347
2019-03-09T11:45:24.381Z,99362
2019-03-09T11:50:24.457Z,99349
2019-03-09T11:55:24.428Z,99363
2019-03-09T12:00:24.435Z,99349
2019-03-09T12:05:24.435Z,99345
2019-03-09T12:10:24.405Z,99355
2019-03-09T12:15:24.449Z,99353
2019-03-09T12:20:24.474Z,99364
2019-03-09T12:25:24.436Z,99356
2019-03-09T12:30:24.453Z,99343
2019-03-09T12:35:24.448Z,99339
2019-03-09T12:40:24.442Z,99335
2019-03-09T12:45:24.433Z,99329
2019-03-09T12:50:24.494Z,99327
2019-03-09T12:55:24.464Z,99309
2019-03-09T13:00:24.564Z,99312
2019-03-09T13:05:24.430Z,99341
2019-03-09T13:10:24.443Z,99314
2019-03-09T13:15:24.472Z,99307
2019-03-09T13:20:24.436Z,99304
2019-03-09T13:25:24.424Z,99289
2019-03-09T13:30:24.444Z,99300
2019-03-09T13:35:24.432Z,99296
2019-03-09T13:40:24.441Z,99287
2019-03-09T13:45:24.451Z,99261
2019-03-09T13:50:24.438Z,99271
2019-03-09T13:55:24.439Z,99241
2019-03-09T14:00:24.407Z,99225
2019-03-09T14:05:24.468Z,99214
2019-03-09T14:10:24.458Z,99211
2019-03-09T14:15:24.400Z,99195
2019-03-09T14:20:24.540Z,99183
2019-03-09T14:25:24.459Z,99180
2019-03-09T14:30:24.436Z,99158
2019-03-09T14:35:24.565Z,99170
2019-03-09T14:40:24.561Z,99159
2019-03-09T14:45:24.508Z,99158
2019-03-09T14:50:24.410Z,99147
2019-03-09T14:55:24.450Z,99148
2019-03-09T15:00:24.438Z,99131
2019-03-09T15:05:24.461Z,99120
2019-03-09T15:10:24.455Z,99098
2019-03-09T15:15:24.449Z,99100
2019-03-09T15:20:24.431Z,99068
2019-03-09T15:25:24.453Z,99032
2019-03-09T15:30:24.506Z,99029
2019-03-09T15:35:24.439Z,98986
2019-03-09T15:40:24.448Z,98978
2019-03-09T15:45:24.443Z,98968
2019-03-09T15:50:24.461Z,98971
2019-03-09T15:55:24.437Z,98968
2019-03-09T16:00:24.457Z,98957
2019-03-09T16:05:24.417Z,98951
2019-03-09T16:10:24.448Z,98939
2019-03-09T16:15:24.430Z,98937
2019-03-09T16:20:24.462Z,98945
2019-03-09T16:25:24.443Z,98944
2019-03-09T16:30:24.415Z,98925
2019-03-09T16:35:26.079Z,98906
2019-03-09T16:40:24.468Z,98899
2019-03-09T16:45:24.454Z,98877
2019-03-09T16:50:24.478Z,98864
2019-03-09T16:55:24.445Z,98829
2019-03-09T17:00:24.461Z,98816
2019-03-09T17:05:24.445Z,98735
2019-03-09T17:10:24.506Z,98761
2019-03-09T17:15:24.461Z,98765
2019-03-09T17:20:24.417Z,98843
2019-03-09T17:25:24.470Z,98893
2019-03-09T17:30:24.457Z,98892
2019-03-09T17:35:24.474Z,98883
2019-03-09T17:40:24.461Z,98878
2019-03-09T17:45:24.457Z,98833
2019-03-09T17:50:24.428Z,98903
2019-03-09T17:55:24.470Z,98923
2019-03-09T18:00:24.467Z,98959
2019-03-09T18:05:24.494Z,98984
2019-03-09T18:10:24.456Z,98986
2019-03-09T18:15:24.469Z,98968
2019-03-09T18:20:24.459Z,98964
2019-03-09T18:25:24.455Z,98976
2019-03-09T18:30:24.462Z,98977
2019-03-09T18:35:24.426Z,98989
2019-03-09T18:40:24.462Z,98943
2019-03-09T18:45:24.433Z,98973
2019-03-09T18:50:24.457Z,98990
2019-03-09T18:55:24.421Z,99010
2019-03-09T19:00:24.456Z,99012
2019-03-09T19:05:24.466Z,99026
2019-03-09T19:10:24.421Z,99060
2019-03-09T19:15:24.476Z,99080
2019-03-09T19:20:24.480Z,99095
2019-03-09T19:25:24.457Z,99145
2019-03-09T19:30:24.470Z,99135
2019-03-09T19:35:24.478Z,99181
2019-03-09T19:40:24.470Z,99209
2019-03-09T19:45:24.479Z,99203
2019-03-09T19:50:24.561Z,99216
2019-03-09T19:55:24.430Z,99217
2019-03-09T20:00:24.469Z,99185
2019-03-09T20:05:34.450Z,99247
2019-03-09T20:10:24.581Z,99275
2019-03-09T20:15:24.482Z,99258
2019-03-09T20:20:24.465Z,99315
2019-03-09T20:25:24.503Z,99351
2019-03-09T20:30:24.472Z,99359
2019-03-09T20:35:24.436Z,99357
2019-03-09T20:40:24.460Z,99396
2019-03-09T20:45:24.473Z,99438
2019-03-09T20:50:24.607Z,99429
2019-03-09T20:55:24.971Z,99454
2019-03-09T21:00:24.976Z,99448
2019-03-09T21:05:24.928Z,99448
2019-03-09T21:10:24.934Z,99448
2019-03-09T21:15:24.935Z,99448
2019-03-09T21:20:24.933Z,99512
2019-03-09T21:25:24.938Z,99526
2019-03-09T21:30:25.086Z,99540
2019-03-09T21:35:25.111Z,99523
2019-03-09T21:40:25.118Z,99553
2019-03-09T21:45:25.017Z,99570
2019-03-09T21:50:24.927Z,99572
2019-03-09T21:55:24.963Z,99580
2019-03-09T22:00:24.950Z,99597
2019-03-09T22:05:24.923Z,99608
2019-03-09T22:10:24.956Z,99628
2019-03-09T22:15:24.962Z,99619
2019-03-09T22:20:24.962Z,99620
2019-03-09T22:25:24.946Z,99640
2019-03-09T22:30:25.028Z,99633
2019-03-09T22:35:24.958Z,99634
2019-03-09T22:40:24.931Z,99636
2019-03-09T22:45:24.964Z,99645
2019-03-09T22:50:24.968Z,99652
2019-03-09T22:55:24.961Z,99669
2019-03-09T23:00:24.992Z,99679
2019-03-09T23:05:24.977Z,99683
2019-03-09T23:10:24.996Z,99693
2019-03-09T23:15:25.001Z,99693
2019-03-09T23:20:24.996Z,99694
2019-03-09T23:25:24.987Z,99697
2019-03-09T23:30:25.064Z,99705
2019-03-09T23:35:25.157Z,99705
2019-03-09T23:40:25.088Z,99708
2019-03-09T23:45:25.001Z,99714
2019-03-09T23:50:25.003Z,99720
2019-03-09T23:55:24.998Z,99701
